sensor_id;sensor_type;location;lat;lon;timestamp;P1;durP1;ratioP1;P2;durP2;ratioP2
16403;SDS011;8311;50.158;8.642;2024-03-29T00:02:35;3.15;;;1.15;;
16403;SDS011;8311;50.158;8.642;2024-03-29T00:05:27;1.88;;;0.90;;
16403;SDS011;8311;50.158;8.642;2024-03-29T00:08:20;1.75;;;0.93;;
16403;SDS011;8311;50.158;8.642;2024-03-29T00:11:11;4.68;;;0.98;;
16403;SDS011;8311;50.158;8.642;2024-03-29T00:14:02;3.08;;;1.10;;
16403;SDS011;8311;50.158;8.642;2024-03-29T00:16:53;2.55;;;0.70;;
16403;SDS011;8311;50.158;8.642;2024-03-29T00:19:44;4.13;;;1.10;;
16403;SDS011;8311;50.158;8.642;2024-03-29T00:22:35;1.40;;;0.75;;
16403;SDS011;8311;50.158;8.642;2024-03-29T00:25:27;3.55;;;1.13;;
16403;SDS011;8311;50.158;8.642;2024-03-29T00:28:19;4.55;;;0.90;;
16403;SDS011;8311;50.158;8.642;2024-03-29T00:31:10;5.03;;;1.10;;
16403;SDS011;8311;50.158;8.642;2024-03-29T00:34:01;5.60;;;0.90;;
16403;SDS011;8311;50.158;8.642;2024-03-29T00:36:52;1.08;;;0.57;;
16403;SDS011;8311;50.158;8.642;2024-03-29T00:39:43;2.78;;;1.20;;
16403;SDS011;8311;50.158;8.642;2024-03-29T00:42:36;2.25;;;1.00;;
16403;SDS011;8311;50.158;8.642;2024-03-29T00:45:27;2.95;;;1.23;;
16403;SDS011;8311;50.158;8.642;2024-03-29T00:48:18;2.08;;;1.10;;
16403;SDS011;8311;50.158;8.642;2024-03-29T00:51:10;1.60;;;0.93;;
16403;SDS011;8311;50.158;8.642;2024-03-29T00:54:01;2.65;;;1.15;;
16403;SDS011;8311;50.158;8.642;2024-03-29T00:56:52;1.80;;;0.95;;
16403;SDS011;8311;50.158;8.642;2024-03-29T00:59:45;2.28;;;0.90;;
16403;SDS011;8311;50.158;8.642;2024-03-29T01:02:37;2.72;;;1.23;;
16403;SDS011;8311;50.158;8.642;2024-03-29T01:05:28;2.00;;;1.08;;
16403;SDS011;8311;50.158;8.642;2024-03-29T01:08:19;3.63;;;1.48;;
16403;SDS011;8311;50.158;8.642;2024-03-29T01:11:11;2.85;;;1.15;;
16403;SDS011;8311;50.158;8.642;2024-03-29T01:14:02;1.77;;;0.82;;
16403;SDS011;8311;50.158;8.642;2024-03-29T01:16:54;3.28;;;0.98;;
16403;SDS011;8311;50.158;8.642;2024-03-29T01:19:45;2.95;;;1.38;;
16403;SDS011;8311;50.158;8.642;2024-03-29T01:22:36;3.40;;;1.20;;
16403;SDS011;8311;50.158;8.642;2024-03-29T01:25:27;2.60;;;0.88;;
16403;SDS011;8311;50.158;8.642;2024-03-29T01:28:18;1.73;;;1.05;;
16403;SDS011;8311;50.158;8.642;2024-03-29T01:31:10;1.30;;;0.85;;
16403;SDS011;8311;50.158;8.642;2024-03-29T01:34:04;4.45;;;1.05;;
16403;SDS011;8311;50.158;8.642;2024-03-29T01:36:55;2.55;;;1.10;;
16403;SDS011;8311;50.158;8.642;2024-03-29T01:39:46;1.52;;;1.00;;
16403;SDS011;8311;50.158;8.642;2024-03-29T01:42:37;2.50;;;1.10;;
16403;SDS011;8311;50.158;8.642;2024-03-29T01:45:28;1.35;;;0.82;;
16403;SDS011;8311;50.158;8.642;2024-03-29T01:48:21;3.05;;;1.10;;
16403;SDS011;8311;50.158;8.642;2024-03-29T01:51:17;2.53;;;1.10;;
16403;SDS011;8311;50.158;8.642;2024-03-29T01:54:11;2.67;;;0.98;;
16403;SDS011;8311;50.158;8.642;2024-03-29T01:57:03;1.30;;;0.90;;
16403;SDS011;8311;50.158;8.642;2024-03-29T01:59:57;1.92;;;0.75;;
16403;SDS011;8311;50.158;8.642;2024-03-29T02:02:50;3.67;;;0.90;;
16403;SDS011;8311;50.158;8.642;2024-03-29T02:05:42;2.72;;;0.75;;
16403;SDS011;8311;50.158;8.642;2024-03-29T02:08:37;3.20;;;1.20;;
16403;SDS011;8311;50.158;8.642;2024-03-29T02:11:28;1.98;;;1.10;;
16403;SDS011;8311;50.158;8.642;2024-03-29T02:14:20;3.00;;;1.13;;
16403;SDS011;8311;50.158;8.642;2024-03-29T02:17:12;1.35;;;0.75;;
16403;SDS011;8311;50.158;8.642;2024-03-29T02:20:05;2.50;;;1.00;;
16403;SDS011;8311;50.158;8.642;2024-03-29T02:22:58;1.27;;;0.93;;
16403;SDS011;8311;50.158;8.642;2024-03-29T02:25:55;2.58;;;0.88;;
16403;SDS011;8311;50.158;8.642;2024-03-29T02:28:47;2.90;;;0.85;;
16403;SDS011;8311;50.158;8.642;2024-03-29T02:31:39;4.28;;;1.42;;
16403;SDS011;8311;50.158;8.642;2024-03-29T02:34:31;2.85;;;0.95;;
16403;SDS011;8311;50.158;8.642;2024-03-29T02:37:23;4.85;;;1.15;;
16403;SDS011;8311;50.158;8.642;2024-03-29T02:40:15;3.90;;;1.17;;
16403;SDS011;8311;50.158;8.642;2024-03-29T02:43:09;2.15;;;1.00;;
16403;SDS011;8311;50.158;8.642;2024-03-29T02:46:00;4.88;;;1.15;;
16403;SDS011;8311;50.158;8.642;2024-03-29T02:48:52;2.53;;;1.23;;
16403;SDS011;8311;50.158;8.642;2024-03-29T02:51:44;1.42;;;0.88;;
16403;SDS011;8311;50.158;8.642;2024-03-29T02:54:35;2.67;;;1.05;;
16403;SDS011;8311;50.158;8.642;2024-03-29T02:57:27;3.10;;;1.02;;
16403;SDS011;8311;50.158;8.642;2024-03-29T03:00:20;2.95;;;1.25;;
16403;SDS011;8311;50.158;8.642;2024-03-29T03:03:14;1.58;;;0.90;;
16403;SDS011;8311;50.158;8.642;2024-03-29T03:06:07;2.15;;;1.02;;
16403;SDS011;8311;50.158;8.642;2024-03-29T03:08:58;2.53;;;1.10;;
16403;SDS011;8311;50.158;8.642;2024-03-29T03:12:07;2.42;;;0.80;;
16403;SDS011;8311;50.158;8.642;2024-03-29T03:14:59;1.92;;;1.10;;
16403;SDS011;8311;50.158;8.642;2024-03-29T03:17:52;1.63;;;0.90;;
16403;SDS011;8311;50.158;8.642;2024-03-29T03:20:49;1.40;;;0.80;;
16403;SDS011;8311;50.158;8.642;2024-03-29T03:23:41;2.08;;;0.90;;
16403;SDS011;8311;50.158;8.642;2024-03-29T03:26:34;2.15;;;0.98;;
16403;SDS011;8311;50.158;8.642;2024-03-29T03:29:24;3.95;;;1.10;;
16403;SDS011;8311;50.158;8.642;2024-03-29T03:32:16;1.02;;;0.70;;
16403;SDS011;8311;50.158;8.642;2024-03-29T03:35:09;1.67;;;0.95;;
16403;SDS011;8311;50.158;8.642;2024-03-29T03:38:02;1.63;;;0.93;;
16403;SDS011;8311;50.158;8.642;2024-03-29T03:40:53;1.90;;;1.00;;
16403;SDS011;8311;50.158;8.642;2024-03-29T03:43:44;1.73;;;0.98;;
16403;SDS011;8311;50.158;8.642;2024-03-29T03:46:37;1.73;;;0.95;;
16403;SDS011;8311;50.158;8.642;2024-03-29T03:49:27;1.98;;;0.98;;
16403;SDS011;8311;50.158;8.642;2024-03-29T03:52:21;3.13;;;1.10;;
16403;SDS011;8311;50.158;8.642;2024-03-29T03:55:12;1.90;;;0.98;;
16403;SDS011;8311;50.158;8.642;2024-03-29T03:58:06;1.25;;;0.90;;
16403;SDS011;8311;50.158;8.642;2024-03-29T04:01:01;2.05;;;1.10;;
16403;SDS011;8311;50.158;8.642;2024-03-29T04:03:56;1.92;;;0.90;;
16403;SDS011;8311;50.158;8.642;2024-03-29T04:06:46;2.20;;;1.00;;
16403;SDS011;8311;50.158;8.642;2024-03-29T04:09:40;1.75;;;0.85;;
16403;SDS011;8311;50.158;8.642;2024-03-29T04:12:30;3.03;;;1.05;;
16403;SDS011;8311;50.158;8.642;2024-03-29T04:15:22;1.10;;;0.85;;
16403;SDS011;8311;50.158;8.642;2024-03-29T04:18:13;3.45;;;1.33;;
16403;SDS011;8311;50.158;8.642;2024-03-29T04:21:05;5.00;;;1.60;;
16403;SDS011;8311;50.158;8.642;2024-03-29T04:23:57;6.93;;;2.25;;
16403;SDS011;8311;50.158;8.642;2024-03-29T04:26:51;8.90;;;1.60;;
16403;SDS011;8311;50.158;8.642;2024-03-29T04:29:42;11.73;;;2.35;;
16403;SDS011;8311;50.158;8.642;2024-03-29T04:32:34;6.78;;;1.83;;
16403;SDS011;8311;50.158;8.642;2024-03-29T04:35:25;11.80;;;2.03;;
16403;SDS011;8311;50.158;8.642;2024-03-29T04:38:17;5.90;;;1.70;;
16403;SDS011;8311;50.158;8.642;2024-03-29T04:41:09;8.55;;;2.20;;
16403;SDS011;8311;50.158;8.642;2024-03-29T04:44:03;9.63;;;1.77;;
16403;SDS011;8311;50.158;8.642;2024-03-29T04:46:55;9.45;;;1.80;;
16403;SDS011;8311;50.158;8.642;2024-03-29T04:49:48;8.77;;;1.67;;
16403;SDS011;8311;50.158;8.642;2024-03-29T04:52:39;6.68;;;1.58;;
16403;SDS011;8311;50.158;8.642;2024-03-29T04:55:31;4.18;;;1.38;;
16403;SDS011;8311;50.158;8.642;2024-03-29T04:58:24;8.57;;;2.00;;
16403;SDS011;8311;50.158;8.642;2024-03-29T05:01:18;8.05;;;1.85;;
16403;SDS011;8311;50.158;8.642;2024-03-29T05:04:11;7.65;;;1.90;;
16403;SDS011;8311;50.158;8.642;2024-03-29T05:07:07;7.30;;;1.83;;
16403;SDS011;8311;50.158;8.642;2024-03-29T05:09:58;11.13;;;2.13;;
16403;SDS011;8311;50.158;8.642;2024-03-29T05:12:50;7.10;;;1.48;;
16403;SDS011;8311;50.158;8.642;2024-03-29T05:15:44;4.20;;;1.50;;
16403;SDS011;8311;50.158;8.642;2024-03-29T05:18:39;8.98;;;1.30;;
16403;SDS011;8311;50.158;8.642;2024-03-29T05:21:31;9.95;;;1.92;;
16403;SDS011;8311;50.158;8.642;2024-03-29T05:24:24;5.50;;;1.83;;
16403;SDS011;8311;50.158;8.642;2024-03-29T05:27:16;9.55;;;1.83;;
16403;SDS011;8311;50.158;8.642;2024-03-29T05:30:09;8.50;;;2.17;;
16403;SDS011;8311;50.158;8.642;2024-03-29T05:33:00;10.73;;;2.55;;
16403;SDS011;8311;50.158;8.642;2024-03-29T05:35:54;8.18;;;1.85;;
16403;SDS011;8311;50.158;8.642;2024-03-29T05:38:46;9.20;;;2.10;;
16403;SDS011;8311;50.158;8.642;2024-03-29T05:41:39;7.57;;;1.63;;
16403;SDS011;8311;50.158;8.642;2024-03-29T05:44:32;6.55;;;1.98;;
16403;SDS011;8311;50.158;8.642;2024-03-29T05:47:24;5.97;;;1.90;;
16403;SDS011;8311;50.158;8.642;2024-03-29T05:50:16;5.82;;;1.90;;
16403;SDS011;8311;50.158;8.642;2024-03-29T05:53:10;12.15;;;2.22;;
16403;SDS011;8311;50.158;8.642;2024-03-29T05:56:03;4.78;;;2.03;;
16403;SDS011;8311;50.158;8.642;2024-03-29T05:58:56;8.35;;;2.28;;
16403;SDS011;8311;50.158;8.642;2024-03-29T06:01:47;7.80;;;2.47;;
16403;SDS011;8311;50.158;8.642;2024-03-29T06:04:40;11.05;;;2.00;;
16403;SDS011;8311;50.158;8.642;2024-03-29T06:07:32;8.70;;;2.03;;
16403;SDS011;8311;50.158;8.642;2024-03-29T06:10:26;4.05;;;1.63;;
16403;SDS011;8311;50.158;8.642;2024-03-29T06:13:18;5.22;;;1.73;;
16403;SDS011;8311;50.158;8.642;2024-03-29T06:16:39;10.68;;;2.38;;
16403;SDS011;8311;50.158;8.642;2024-03-29T06:19:48;4.28;;;1.70;;
16403;SDS011;8311;50.158;8.642;2024-03-29T06:22:40;8.15;;;1.90;;
16403;SDS011;8311;50.158;8.642;2024-03-29T06:25:34;7.50;;;1.67;;
16403;SDS011;8311;50.158;8.642;2024-03-29T06:28:27;7.47;;;2.30;;
16403;SDS011;8311;50.158;8.642;2024-03-29T06:31:19;4.10;;;1.50;;
16403;SDS011;8311;50.158;8.642;2024-03-29T06:34:10;5.47;;;2.10;;
16403;SDS011;8311;50.158;8.642;2024-03-29T06:37:03;9.77;;;2.65;;
16403;SDS011;8311;50.158;8.642;2024-03-29T06:39:55;11.07;;;2.38;;
16403;SDS011;8311;50.158;8.642;2024-03-29T06:42:49;10.27;;;2.65;;
16403;SDS011;8311;50.158;8.642;2024-03-29T06:45:42;12.68;;;2.38;;
16403;SDS011;8311;50.158;8.642;2024-03-29T06:48:34;9.07;;;2.72;;
16403;SDS011;8311;50.158;8.642;2024-03-29T06:51:27;6.75;;;2.15;;
16403;SDS011;8311;50.158;8.642;2024-03-29T06:54:18;12.25;;;2.60;;
16403;SDS011;8311;50.158;8.642;2024-03-29T06:57:13;10.63;;;2.45;;
16403;SDS011;8311;50.158;8.642;2024-03-29T07:00:10;8.95;;;2.03;;
16403;SDS011;8311;50.158;8.642;2024-03-29T07:03:02;8.55;;;2.65;;
16403;SDS011;8311;50.158;8.642;2024-03-29T07:05:54;8.32;;;2.10;;
16403;SDS011;8311;50.158;8.642;2024-03-29T07:08:47;8.60;;;1.83;;
16403;SDS011;8311;50.158;8.642;2024-03-29T07:11:38;9.40;;;2.15;;
16403;SDS011;8311;50.158;8.642;2024-03-29T07:14:31;8.90;;;2.28;;
16403;SDS011;8311;50.158;8.642;2024-03-29T07:17:25;6.40;;;2.00;;
16403;SDS011;8311;50.158;8.642;2024-03-29T07:20:17;11.98;;;2.80;;
16403;SDS011;8311;50.158;8.642;2024-03-29T07:23:08;13.15;;;2.00;;
16403;SDS011;8311;50.158;8.642;2024-03-29T07:26:02;10.38;;;2.22;;
16403;SDS011;8311;50.158;8.642;2024-03-29T07:28:55;9.50;;;2.63;;
16403;SDS011;8311;50.158;8.642;2024-03-29T07:31:48;9.93;;;2.20;;
16403;SDS011;8311;50.158;8.642;2024-03-29T07:34:42;2.55;;;1.20;;
16403;SDS011;8311;50.158;8.642;2024-03-29T07:37:35;7.50;;;1.40;;
16403;SDS011;8311;50.158;8.642;2024-03-29T07:40:46;5.25;;;1.30;;
16403;SDS011;8311;50.158;8.642;2024-03-29T07:43:39;9.50;;;1.38;;
16403;SDS011;8311;50.158;8.642;2024-03-29T07:46:32;2.55;;;1.15;;
16403;SDS011;8311;50.158;8.642;2024-03-29T07:49:26;2.53;;;1.30;;
16403;SDS011;8311;50.158;8.642;2024-03-29T07:52:19;3.90;;;1.00;;
16403;SDS011;8311;50.158;8.642;2024-03-29T07:55:12;2.97;;;1.27;;
16403;SDS011;8311;50.158;8.642;2024-03-29T07:58:05;3.08;;;1.00;;
16403;SDS011;8311;50.158;8.642;2024-03-29T08:00:58;4.72;;;1.38;;
16403;SDS011;8311;50.158;8.642;2024-03-29T08:03:51;7.38;;;1.40;;
16403;SDS011;8311;50.158;8.642;2024-03-29T08:06:44;5.22;;;1.63;;
16403;SDS011;8311;50.158;8.642;2024-03-29T08:09:37;4.15;;;1.20;;
16403;SDS011;8311;50.158;8.642;2024-03-29T08:12:30;6.80;;;1.40;;
16403;SDS011;8311;50.158;8.642;2024-03-29T08:15:23;10.88;;;1.50;;
16403;SDS011;8311;50.158;8.642;2024-03-29T08:18:16;7.18;;;1.35;;
16403;SDS011;8311;50.158;8.642;2024-03-29T08:21:07;5.68;;;1.65;;
16403;SDS011;8311;50.158;8.642;2024-03-29T08:24:02;4.53;;;1.55;;
16403;SDS011;8311;50.158;8.642;2024-03-29T08:26:56;5.30;;;1.80;;
16403;SDS011;8311;50.158;8.642;2024-03-29T08:29:49;5.10;;;1.65;;
16403;SDS011;8311;50.158;8.642;2024-03-29T08:32:41;10.05;;;2.00;;
16403;SDS011;8311;50.158;8.642;2024-03-29T08:35:34;6.32;;;2.10;;
16403;SDS011;8311;50.158;8.642;2024-03-29T08:38:27;4.53;;;1.85;;
16403;SDS011;8311;50.158;8.642;2024-03-29T08:41:18;10.98;;;1.92;;
16403;SDS011;8311;50.158;8.642;2024-03-29T08:44:12;5.07;;;2.25;;
16403;SDS011;8311;50.158;8.642;2024-03-29T08:47:04;4.80;;;1.58;;
16403;SDS011;8311;50.158;8.642;2024-03-29T08:49:57;5.43;;;2.17;;
16403;SDS011;8311;50.158;8.642;2024-03-29T08:52:49;5.53;;;1.65;;
16403;SDS011;8311;50.158;8.642;2024-03-29T08:55:43;3.72;;;1.63;;
16403;SDS011;8311;50.158;8.642;2024-03-29T08:58:38;5.75;;;2.17;;
16403;SDS011;8311;50.158;8.642;2024-03-29T09:01:32;6.25;;;1.70;;
16403;SDS011;8311;50.158;8.642;2024-03-29T09:04:24;4.85;;;1.58;;
16403;SDS011;8311;50.158;8.642;2024-03-29T09:07:15;9.95;;;2.50;;
16403;SDS011;8311;50.158;8.642;2024-03-29T09:10:08;5.45;;;1.83;;
16403;SDS011;8311;50.158;8.642;2024-03-29T09:13:00;5.03;;;1.70;;
16403;SDS011;8311;50.158;8.642;2024-03-29T09:15:52;6.15;;;1.85;;
16403;SDS011;8311;50.158;8.642;2024-03-29T09:18:47;6.40;;;1.73;;
16403;SDS011;8311;50.158;8.642;2024-03-29T09:21:40;6.30;;;1.65;;
16403;SDS011;8311;50.158;8.642;2024-03-29T09:24:33;12.70;;;2.40;;
16403;SDS011;8311;50.158;8.642;2024-03-29T09:27:26;7.18;;;2.00;;
16403;SDS011;8311;50.158;8.642;2024-03-29T09:30:19;3.28;;;1.63;;
16403;SDS011;8311;50.158;8.642;2024-03-29T09:33:12;5.72;;;1.83;;
16403;SDS011;8311;50.158;8.642;2024-03-29T09:36:06;7.63;;;2.13;;
16403;SDS011;8311;50.158;8.642;2024-03-29T09:39:01;7.13;;;1.80;;
16403;SDS011;8311;50.158;8.642;2024-03-29T09:41:54;7.30;;;1.92;;
16403;SDS011;8311;50.158;8.642;2024-03-29T09:44:50;4.20;;;1.58;;
16403;SDS011;8311;50.158;8.642;2024-03-29T09:47:43;3.55;;;1.42;;
16403;SDS011;8311;50.158;8.642;2024-03-29T09:50:36;6.30;;;1.95;;
16403;SDS011;8311;50.158;8.642;2024-03-29T09:53:30;3.70;;;1.45;;
16403;SDS011;8311;50.158;8.642;2024-03-29T09:56:24;7.72;;;1.98;;
16403;SDS011;8311;50.158;8.642;2024-03-29T09:59:18;5.97;;;1.85;;
16403;SDS011;8311;50.158;8.642;2024-03-29T10:02:11;9.98;;;1.75;;
16403;SDS011;8311;50.158;8.642;2024-03-29T10:05:08;5.30;;;1.88;;
16403;SDS011;8311;50.158;8.642;2024-03-29T10:08:03;9.27;;;1.88;;
16403;SDS011;8311;50.158;8.642;2024-03-29T10:10:59;9.90;;;2.45;;
16403;SDS011;8311;50.158;8.642;2024-03-29T10:13:52;25.92;;;4.07;;
16403;SDS011;8311;50.158;8.642;2024-03-29T10:16:43;12.57;;;2.47;;
16403;SDS011;8311;50.158;8.642;2024-03-29T10:19:36;14.25;;;2.63;;
16403;SDS011;8311;50.158;8.642;2024-03-29T10:22:27;6.82;;;2.05;;
16403;SDS011;8311;50.158;8.642;2024-03-29T10:25:20;12.38;;;2.55;;
16403;SDS011;8311;50.158;8.642;2024-03-29T10:28:13;8.40;;;2.22;;
16403;SDS011;8311;50.158;8.642;2024-03-29T10:31:04;5.35;;;2.17;;
16403;SDS011;8311;50.158;8.642;2024-03-29T10:34:01;8.13;;;2.10;;
16403;SDS011;8311;50.158;8.642;2024-03-29T10:36:54;6.90;;;2.03;;
16403;SDS011;8311;50.158;8.642;2024-03-29T10:39:46;8.57;;;1.90;;
16403;SDS011;8311;50.158;8.642;2024-03-29T10:42:38;12.30;;;2.15;;
16403;SDS011;8311;50.158;8.642;2024-03-29T10:45:32;5.97;;;2.30;;
16403;SDS011;8311;50.158;8.642;2024-03-29T10:48:25;10.02;;;2.22;;
16403;SDS011;8311;50.158;8.642;2024-03-29T10:51:18;9.20;;;2.42;;
16403;SDS011;8311;50.158;8.642;2024-03-29T10:54:11;8.57;;;2.03;;
16403;SDS011;8311;50.158;8.642;2024-03-29T10:57:04;10.00;;;2.45;;
16403;SDS011;8311;50.158;8.642;2024-03-29T11:00:00;12.73;;;2.40;;
16403;SDS011;8311;50.158;8.642;2024-03-29T11:03:02;16.50;;;2.13;;
16403;SDS011;8311;50.158;8.642;2024-03-29T11:06:02;8.85;;;1.83;;
16403;SDS011;8311;50.158;8.642;2024-03-29T11:08:56;11.52;;;2.17;;
16403;SDS011;8311;50.158;8.642;2024-03-29T11:11:50;5.50;;;2.05;;
16403;SDS011;8311;50.158;8.642;2024-03-29T11:14:46;9.55;;;2.30;;
16403;SDS011;8311;50.158;8.642;2024-03-29T11:17:42;6.75;;;2.25;;
16403;SDS011;8311;50.158;8.642;2024-03-29T11:20:35;8.48;;;2.40;;
16403;SDS011;8311;50.158;8.642;2024-03-29T11:23:30;5.88;;;1.52;;
16403;SDS011;8311;50.158;8.642;2024-03-29T11:26:23;6.38;;;1.75;;
16403;SDS011;8311;50.158;8.642;2024-03-29T11:29:18;4.70;;;1.75;;
16403;SDS011;8311;50.158;8.642;2024-03-29T11:32:11;14.38;;;1.85;;
16403;SDS011;8311;50.158;8.642;2024-03-29T11:35:04;8.13;;;2.35;;
16403;SDS011;8311;50.158;8.642;2024-03-29T11:37:58;11.05;;;2.60;;
16403;SDS011;8311;50.158;8.642;2024-03-29T11:40:54;9.45;;;2.30;;
16403;SDS011;8311;50.158;8.642;2024-03-29T11:43:46;5.50;;;1.52;;
16403;SDS011;8311;50.158;8.642;2024-03-29T11:46:38;10.35;;;2.08;;
16403;SDS011;8311;50.158;8.642;2024-03-29T11:49:31;9.68;;;2.30;;
16403;SDS011;8311;50.158;8.642;2024-03-29T11:52:23;10.32;;;1.65;;
16403;SDS011;8311;50.158;8.642;2024-03-29T11:55:16;10.73;;;1.90;;
16403;SDS011;8311;50.158;8.642;2024-03-29T11:58:09;5.25;;;2.35;;
16403;SDS011;8311;50.158;8.642;2024-03-29T12:01:01;7.80;;;1.98;;
16403;SDS011;8311;50.158;8.642;2024-03-29T12:03:54;6.72;;;2.47;;
16403;SDS011;8311;50.158;8.642;2024-03-29T12:06:46;6.72;;;1.75;;
16403;SDS011;8311;50.158;8.642;2024-03-29T12:09:38;5.97;;;1.85;;
16403;SDS011;8311;50.158;8.642;2024-03-29T12:12:31;7.15;;;1.70;;
16403;SDS011;8311;50.158;8.642;2024-03-29T12:15:27;3.70;;;1.85;;
16403;SDS011;8311;50.158;8.642;2024-03-29T12:18:19;7.05;;;2.00;;
16403;SDS011;8311;50.158;8.642;2024-03-29T12:21:12;5.93;;;2.15;;
16403;SDS011;8311;50.158;8.642;2024-03-29T12:24:07;5.40;;;1.48;;
16403;SDS011;8311;50.158;8.642;2024-03-29T12:26:59;5.53;;;1.70;;
16403;SDS011;8311;50.158;8.642;2024-03-29T12:29:52;5.30;;;1.63;;
16403;SDS011;8311;50.158;8.642;2024-03-29T12:32:46;3.47;;;1.27;;
16403;SDS011;8311;50.158;8.642;2024-03-29T12:35:38;4.70;;;1.73;;
16403;SDS011;8311;50.158;8.642;2024-03-29T12:38:33;5.65;;;1.67;;
16403;SDS011;8311;50.158;8.642;2024-03-29T12:41:25;4.07;;;1.65;;
16403;SDS011;8311;50.158;8.642;2024-03-29T12:44:17;7.93;;;1.60;;
16403;SDS011;8311;50.158;8.642;2024-03-29T12:47:10;5.45;;;1.80;;
16403;SDS011;8311;50.158;8.642;2024-03-29T12:50:03;6.60;;;1.52;;
16403;SDS011;8311;50.158;8.642;2024-03-29T12:52:56;8.00;;;1.65;;
16403;SDS011;8311;50.158;8.642;2024-03-29T12:55:48;4.97;;;1.75;;
16403;SDS011;8311;50.158;8.642;2024-03-29T12:58:41;4.95;;;1.50;;
16403;SDS011;8311;50.158;8.642;2024-03-29T13:01:34;3.75;;;1.65;;
16403;SDS011;8311;50.158;8.642;2024-03-29T13:04:27;6.03;;;1.80;;
16403;SDS011;8311;50.158;8.642;2024-03-29T13:07:20;6.10;;;1.52;;
16403;SDS011;8311;50.158;8.642;2024-03-29T13:10:12;5.22;;;1.50;;
16403;SDS011;8311;50.158;8.642;2024-03-29T13:13:05;4.80;;;1.73;;
16403;SDS011;8311;50.158;8.642;2024-03-29T13:15:57;5.82;;;1.58;;
16403;SDS011;8311;50.158;8.642;2024-03-29T13:18:49;4.07;;;1.80;;
16403;SDS011;8311;50.158;8.642;2024-03-29T13:21:43;5.60;;;1.40;;
16403;SDS011;8311;50.158;8.642;2024-03-29T13:24:35;6.45;;;1.65;;
16403;SDS011;8311;50.158;8.642;2024-03-29T13:27:27;3.58;;;1.15;;
16403;SDS011;8311;50.158;8.642;2024-03-29T13:30:19;4.47;;;1.30;;
16403;SDS011;8311;50.158;8.642;2024-03-29T13:33:12;2.85;;;1.67;;
16403;SDS011;8311;50.158;8.642;2024-03-29T13:36:05;4.13;;;1.60;;
16403;SDS011;8311;50.158;8.642;2024-03-29T13:38:59;4.03;;;1.55;;
16403;SDS011;8311;50.158;8.642;2024-03-29T13:41:52;4.18;;;1.70;;
16403;SDS011;8311;50.158;8.642;2024-03-29T13:44:44;2.97;;;1.35;;
16403;SDS011;8311;50.158;8.642;2024-03-29T13:47:37;3.05;;;1.25;;
16403;SDS011;8311;50.158;8.642;2024-03-29T13:50:31;4.57;;;1.40;;
16403;SDS011;8311;50.158;8.642;2024-03-29T13:53:23;3.80;;;1.30;;
16403;SDS011;8311;50.158;8.642;2024-03-29T13:56:16;3.42;;;1.50;;
16403;SDS011;8311;50.158;8.642;2024-03-29T13:59:09;2.17;;;1.10;;
16403;SDS011;8311;50.158;8.642;2024-03-29T14:02:02;4.63;;;1.40;;
16403;SDS011;8311;50.158;8.642;2024-03-29T14:04:54;5.68;;;1.65;;
16403;SDS011;8311;50.158;8.642;2024-03-29T14:07:48;4.55;;;1.45;;
16403;SDS011;8311;50.158;8.642;2024-03-29T14:10:40;4.45;;;1.23;;
16403;SDS011;8311;50.158;8.642;2024-03-29T14:13:33;5.03;;;1.50;;
16403;SDS011;8311;50.158;8.642;2024-03-29T14:16:25;3.72;;;1.40;;
16403;SDS011;8311;50.158;8.642;2024-03-29T14:19:17;4.00;;;1.42;;
16403;SDS011;8311;50.158;8.642;2024-03-29T14:22:09;4.88;;;1.73;;
16403;SDS011;8311;50.158;8.642;2024-03-29T14:25:02;2.47;;;1.20;;
16403;SDS011;8311;50.158;8.642;2024-03-29T14:27:55;5.38;;;1.70;;
16403;SDS011;8311;50.158;8.642;2024-03-29T14:30:50;5.95;;;1.38;;
16403;SDS011;8311;50.158;8.642;2024-03-29T14:33:42;5.18;;;1.55;;
16403;SDS011;8311;50.158;8.642;2024-03-29T14:36:35;3.47;;;1.10;;
16403;SDS011;8311;50.158;8.642;2024-03-29T14:39:27;11.80;;;2.00;;
16403;SDS011;8311;50.158;8.642;2024-03-29T14:42:19;4.55;;;1.38;;
16403;SDS011;8311;50.158;8.642;2024-03-29T14:45:13;3.40;;;1.33;;
16403;SDS011;8311;50.158;8.642;2024-03-29T14:48:07;4.38;;;1.25;;
16403;SDS011;8311;50.158;8.642;2024-03-29T14:50:59;6.35;;;1.88;;
16403;SDS011;8311;50.158;8.642;2024-03-29T14:53:51;5.45;;;1.20;;
16403;SDS011;8311;50.158;8.642;2024-03-29T14:56:43;5.82;;;1.50;;
16403;SDS011;8311;50.158;8.642;2024-03-29T14:59:37;3.10;;;1.60;;
16403;SDS011;8311;50.158;8.642;2024-03-29T15:02:29;5.53;;;1.20;;
16403;SDS011;8311;50.158;8.642;2024-03-29T15:05:22;3.83;;;1.38;;
16403;SDS011;8311;50.158;8.642;2024-03-29T15:08:16;2.42;;;1.00;;
16403;SDS011;8311;50.158;8.642;2024-03-29T15:11:08;3.67;;;1.17;;
16403;SDS011;8311;50.158;8.642;2024-03-29T15:14:00;3.00;;;1.10;;
16403;SDS011;8311;50.158;8.642;2024-03-29T15:16:52;5.28;;;1.20;;
16403;SDS011;8311;50.158;8.642;2024-03-29T15:19:45;2.78;;;1.33;;
16403;SDS011;8311;50.158;8.642;2024-03-29T15:22:43;7.03;;;1.20;;
16403;SDS011;8311;50.158;8.642;2024-03-29T15:25:36;1.88;;;0.82;;
16403;SDS011;8311;50.158;8.642;2024-03-29T15:28:29;2.08;;;0.90;;
16403;SDS011;8311;50.158;8.642;2024-03-29T15:31:39;4.53;;;1.30;;
16403;SDS011;8311;50.158;8.642;2024-03-29T15:34:34;7.22;;;1.50;;
16403;SDS011;8311;50.158;8.642;2024-03-29T15:37:27;3.13;;;1.20;;
16403;SDS011;8311;50.158;8.642;2024-03-29T15:40:21;1.98;;;1.20;;
16403;SDS011;8311;50.158;8.642;2024-03-29T15:43:13;3.70;;;1.50;;
16403;SDS011;8311;50.158;8.642;2024-03-29T15:46:06;6.72;;;1.40;;
16403;SDS011;8311;50.158;8.642;2024-03-29T15:49:01;4.18;;;1.23;;
16403;SDS011;8311;50.158;8.642;2024-03-29T15:51:54;8.10;;;1.63;;
16403;SDS011;8311;50.158;8.642;2024-03-29T15:54:46;8.55;;;2.22;;
16403;SDS011;8311;50.158;8.642;2024-03-29T15:57:41;16.60;;;2.60;;
16403;SDS011;8311;50.158;8.642;2024-03-29T16:00:34;18.92;;;2.60;;
16403;SDS011;8311;50.158;8.642;2024-03-29T16:03:28;21.77;;;2.60;;
16403;SDS011;8311;50.158;8.642;2024-03-29T16:06:21;12.40;;;1.95;;
16403;SDS011;8311;50.158;8.642;2024-03-29T16:09:14;8.50;;;2.05;;
16403;SDS011;8311;50.158;8.642;2024-03-29T16:12:06;12.65;;;1.98;;
16403;SDS011;8311;50.158;8.642;2024-03-29T16:15:00;8.27;;;2.13;;
16403;SDS011;8311;50.158;8.642;2024-03-29T16:17:53;11.32;;;2.08;;
16403;SDS011;8311;50.158;8.642;2024-03-29T16:20:46;10.05;;;1.63;;
16403;SDS011;8311;50.158;8.642;2024-03-29T16:23:37;3.55;;;1.40;;
16403;SDS011;8311;50.158;8.642;2024-03-29T16:26:29;6.22;;;1.92;;
16403;SDS011;8311;50.158;8.642;2024-03-29T16:29:20;6.78;;;1.80;;
16403;SDS011;8311;50.158;8.642;2024-03-29T16:32:13;7.78;;;1.98;;
16403;SDS011;8311;50.158;8.642;2024-03-29T16:35:05;8.05;;;1.65;;
16403;SDS011;8311;50.158;8.642;2024-03-29T16:37:58;6.88;;;2.10;;
16403;SDS011;8311;50.158;8.642;2024-03-29T16:40:49;4.72;;;1.33;;
16403;SDS011;8311;50.158;8.642;2024-03-29T16:43:41;6.50;;;1.52;;
16403;SDS011;8311;50.158;8.642;2024-03-29T16:46:32;6.47;;;1.52;;
16403;SDS011;8311;50.158;8.642;2024-03-29T16:49:26;3.63;;;1.38;;
16403;SDS011;8311;50.158;8.642;2024-03-29T16:52:17;5.63;;;1.27;;
16403;SDS011;8311;50.158;8.642;2024-03-29T16:55:09;8.00;;;2.03;;
16403;SDS011;8311;50.158;8.642;2024-03-29T16:58:01;9.98;;;1.90;;
16403;SDS011;8311;50.158;8.642;2024-03-29T17:00:53;7.63;;;2.22;;
16403;SDS011;8311;50.158;8.642;2024-03-29T17:03:45;13.45;;;2.58;;
16403;SDS011;8311;50.158;8.642;2024-03-29T17:06:39;13.32;;;2.47;;
16403;SDS011;8311;50.158;8.642;2024-03-29T17:09:34;6.25;;;1.75;;
16403;SDS011;8311;50.158;8.642;2024-03-29T17:12:27;10.32;;;1.92;;
16403;SDS011;8311;50.158;8.642;2024-03-29T17:15:19;9.73;;;2.05;;
16403;SDS011;8311;50.158;8.642;2024-03-29T17:18:11;6.85;;;1.70;;
16403;SDS011;8311;50.158;8.642;2024-03-29T17:21:03;8.73;;;1.88;;
16403;SDS011;8311;50.158;8.642;2024-03-29T17:23:55;23.92;;;3.08;;
16403;SDS011;8311;50.158;8.642;2024-03-29T17:26:48;12.57;;;2.50;;
16403;SDS011;8311;50.158;8.642;2024-03-29T17:29:40;7.32;;;1.60;;
16403;SDS011;8311;50.158;8.642;2024-03-29T17:32:32;9.70;;;2.67;;
16403;SDS011;8311;50.158;8.642;2024-03-29T17:35:23;6.50;;;1.85;;
16403;SDS011;8311;50.158;8.642;2024-03-29T17:38:15;6.93;;;2.20;;